createdAt,value
2022-09-24T00:01:39.147Z,101073.66
2022-09-24T00:04:10.013Z,101068.91
2022-09-24T00:06:41.535Z,101070.06
2022-09-24T00:09:09.051Z,101073.91
2022-09-24T00:11:36.613Z,101076.91
2022-09-24T00:14:03.817Z,101076.00
2022-09-24T00:16:34.471Z,101068.56
2022-09-24T00:19:03.357Z,101067.09
2022-09-24T00:21:37.027Z,101065.34
2022-09-24T00:24:08.406Z,101066.09
2022-09-24T00:26:46.753Z,101081.88
2022-09-24T00:29:17.092Z,101072.94
2022-09-24T00:31:44.241Z,101074.31
2022-09-24T00:34:11.277Z,101073.56
2022-09-24T00:36:38.931Z,101075.44
2022-09-24T00:39:06.773Z,101070.31
2022-09-24T00:41:37.274Z,101064.03
2022-09-24T00:44:43.505Z,101074.63
2022-09-24T00:47:23.714Z,101064.19
2022-09-24T00:49:51.404Z,101068.50
2022-09-24T00:52:19.912Z,101063.91
2022-09-24T00:54:47.610Z,101058.59
2022-09-24T00:57:15.244Z,101054.81
2022-09-24T00:59:44.153Z,101059.66
2022-09-24T01:02:12.384Z,101066.28
2022-09-24T01:04:43.171Z,101072.78
2022-09-24T01:07:11.901Z,101065.00
2022-09-24T01:09:39.701Z,101063.00
2022-09-24T01:12:35.019Z,101063.34
2022-09-24T01:15:33.575Z,101066.19
2022-09-24T01:18:17.359Z,101061.06
2022-09-24T01:21:05.970Z,101061.88
2022-09-24T01:24:15.685Z,101058.56
2022-09-24T01:26:56.967Z,101059.59
2022-09-24T01:29:32.999Z,101058.78
2022-09-24T01:32:07.953Z,101049.00
2022-09-24T01:35:03.659Z,101046.69
2022-09-24T01:37:34.734Z,101045.38
2022-09-24T01:40:04.394Z,101028.00
2022-09-24T01:42:33.700Z,101039.25
2022-09-24T01:45:03.056Z,101031.31
2022-09-24T01:47:35.258Z,101033.13
2022-09-24T01:50:04.184Z,101032.13
2022-09-24T01:52:38.961Z,101032.81
2022-09-24T01:55:08.242Z,101031.78
2022-09-24T01:57:42.494Z,101038.28
2022-09-24T02:00:19.310Z,101025.56
2022-09-24T02:03:11.982Z,101036.47
2022-09-24T02:05:45.591Z,101042.81
2022-09-24T02:08:17.907Z,101044.13
2022-09-24T02:11:04.416Z,101042.81
2022-09-24T02:13:40.013Z,101045.34
2022-09-24T02:16:10.380Z,101045.88
2022-09-24T02:18:42.997Z,101043.41
2022-09-24T02:21:14.022Z,101045.03
2022-09-24T02:23:47.755Z,101039.41
2022-09-24T02:26:15.383Z,101028.34
2022-09-24T02:28:43.248Z,101033.81
2022-09-24T02:31:18.127Z,101031.31
2022-09-24T02:34:08.265Z,101037.97
2022-09-24T02:36:36.457Z,101020.91
2022-09-24T02:39:03.697Z,101024.72
2022-09-24T02:41:32.324Z,101029.88
2022-09-24T02:44:01.277Z,101021.72
2022-09-24T02:46:28.910Z,101029.19
2022-09-24T02:48:56.020Z,101028.38
2022-09-24T02:51:23.134Z,101028.91
2022-09-24T02:53:50.713Z,101022.59
2022-09-24T02:56:42.383Z,101028.53
2022-09-24T02:59:38.616Z,101015.66
2022-09-24T03:02:30.777Z,101017.63
2022-09-24T03:05:26.263Z,101021.13
2022-09-24T03:07:53.551Z,101012.00
2022-09-24T03:10:21.088Z,101016.31
2022-09-24T03:12:48.297Z,101005.53
2022-09-24T03:15:15.549Z,101014.81
2022-09-24T03:17:42.893Z,101018.09
2022-09-24T03:20:10.391Z,101015.28
2022-09-24T03:22:37.610Z,101020.41
2022-09-24T03:25:05.160Z,101017.41
2022-09-24T03:27:32.648Z,101018.22
2022-09-24T03:30:18.187Z,101018.22
2022-09-24T03:32:45.383Z,101017.41
2022-09-24T03:35:12.815Z,101014.59
2022-09-24T03:37:48.348Z,101021.88
2022-09-24T03:40:16.460Z,101021.88
2022-09-24T03:42:43.671Z,101028.00
2022-09-24T03:45:10.975Z,101027.81
2022-09-24T03:47:38.246Z,101019.69
2022-09-24T03:50:05.937Z,101023.81
2022-09-24T03:52:33.444Z,101021.16
2022-09-24T03:55:01.687Z,101026.81
2022-09-24T03:57:28.823Z,101023.97
2022-09-24T03:59:56.245Z,101025.81
2022-09-24T04:02:23.379Z,101029.81
2022-09-24T04:04:50.918Z,101038.94
2022-09-24T04:07:18.414Z,101026.69
2022-09-24T04:09:45.687Z,101039.94
2022-09-24T04:12:13.580Z,101045.41
2022-09-24T04:14:41.061Z,101045.09
2022-09-24T04:17:08.196Z,101052.06
2022-09-24T04:19:35.387Z,101046.28
2022-09-24T04:22:02.579Z,101045.81
2022-09-24T04:24:29.744Z,101047.16
2022-09-24T04:26:56.988Z,101048.13
2022-09-24T04:29:24.251Z,101048.66
2022-09-24T04:31:52.545Z,101044.88
2022-09-24T04:34:21.235Z,101042.72
2022-09-24T04:36:48.460Z,101042.25
2022-09-24T04:39:17.315Z,101039.97
2022-09-24T04:41:44.741Z,101034.16
2022-09-24T04:44:13.669Z,101038.00
2022-09-24T04:46:41.014Z,101040.31
2022-09-24T04:49:10.159Z,101042.28
2022-09-24T04:51:37.506Z,101053.03
2022-09-24T04:54:04.849Z,101047.09
2022-09-24T04:56:32.365Z,101052.56
2022-09-24T04:58:59.451Z,101049.44
2022-09-24T05:01:27.133Z,101059.84
2022-09-24T05:03:54.394Z,101045.94
2022-09-24T05:06:21.657Z,101053.22
2022-09-24T05:08:48.814Z,101050.91
2022-09-24T05:11:15.986Z,101053.41
2022-09-24T05:13:43.121Z,101052.25
2022-09-24T05:16:10.332Z,101049.28
2022-09-24T05:18:37.585Z,101058.72
2022-09-24T05:21:05.263Z,101052.25
2022-09-24T05:23:32.550Z,101051.78
2022-09-24T05:26:17.957Z,101055.56
2022-09-24T05:28:45.020Z,101063.66
2022-09-24T05:31:12.337Z,101070.13
2022-09-24T05:33:39.536Z,101066.78
2022-09-24T05:36:07.080Z,101066.47
2022-09-24T05:38:34.423Z,101081.38
2022-09-24T05:41:06.573Z,101088.47
2022-09-24T05:43:33.780Z,101084.66
2022-09-24T05:46:01.142Z,101084.00
2022-09-24T05:48:28.546Z,101081.69
2022-09-24T05:50:55.905Z,101080.38
2022-09-24T05:53:23.771Z,101087.31
2022-09-24T05:55:51.189Z,101080.03
2022-09-24T05:58:18.817Z,101085.47
2022-09-24T06:00:52.769Z,101089.63
2022-09-24T06:03:21.614Z,101091.75
2022-09-24T06:05:56.638Z,101094.56
2022-09-24T06:08:24.657Z,101100.19
2022-09-24T06:10:51.919Z,101104.63
2022-09-24T06:13:21.252Z,101101.00
2022-09-24T06:15:48.486Z,101107.13
2022-09-24T06:18:19.079Z,101102.97
2022-09-24T06:20:52.155Z,101113.41
2022-09-24T06:23:19.591Z,101112.56
2022-09-24T06:25:51.659Z,101117.03
2022-09-24T06:28:18.893Z,101117.22
2022-09-24T06:30:53.783Z,101121.81
2022-09-24T06:33:21.739Z,101122.16
2022-09-24T06:35:48.992Z,101130.22
2022-09-24T06:38:18.321Z,101126.59
2022-09-24T06:40:48.860Z,101129.94
2022-09-24T06:43:17.855Z,101133.56
2022-09-24T06:45:45.763Z,101129.75
2022-09-24T06:48:14.762Z,101140.16
2022-09-24T06:50:58.789Z,101133.91
2022-09-24T06:53:26.108Z,101143.63
2022-09-24T06:55:58.106Z,101147.94
2022-09-24T06:58:25.697Z,101138.50
2022-09-24T07:01:00.162Z,101149.75
2022-09-24T07:03:29.174Z,101150.75
2022-09-24T07:06:01.589Z,101149.25
2022-09-24T07:08:28.828Z,101153.72
2022-09-24T07:10:57.944Z,101155.72
2022-09-24T07:13:27.846Z,101155.03
2022-09-24T07:15:54.992Z,101161.81
2022-09-24T07:18:22.483Z,101166.44
2022-09-24T07:20:53.796Z,101168.59
2022-09-24T07:23:21.960Z,101165.63
2022-09-24T07:25:50.153Z,101165.13
2022-09-24T07:28:17.997Z,101166.63
2022-09-24T07:30:58.031Z,101169.59
2022-09-24T07:33:25.302Z,101177.34
2022-09-24T07:35:52.079Z,101174.72
2022-09-24T07:38:19.540Z,101171.75
2022-09-24T07:41:00.938Z,101173.25
2022-09-24T07:43:28.262Z,101177.53
2022-09-24T07:45:55.840Z,101177.34
2022-09-24T07:48:22.782Z,101177.03
2022-09-24T07:50:51.361Z,101179.53
2022-09-24T07:53:18.291Z,101177.22
2022-09-24T07:55:45.653Z,101183.63
2022-09-24T07:58:14.305Z,101185.94
2022-09-24T08:03:23.940Z,101198.19
2022-09-24T08:05:50.810Z,101196.69
2022-09-24T08:08:19.848Z,101198.84
2022-09-24T08:10:54.402Z,101209.59
2022-09-24T08:13:26.723Z,101207.28
2022-09-24T08:16:02.428Z,101216.22
2022-09-24T08:18:31.912Z,101213.22
2022-09-24T08:21:03.124Z,101217.03
2022-09-24T08:23:30.628Z,101219.34
2022-09-24T08:25:57.570Z,101214.22
2022-09-24T08:28:24.583Z,101223.16
2022-09-24T08:30:51.742Z,101225.94
2022-09-24T08:33:18.678Z,101222.16
2022-09-24T08:35:45.575Z,101226.94
2022-09-24T08:38:12.388Z,101228.25
2022-09-24T08:41:05.641Z,101221.59
2022-09-24T08:43:32.346Z,101229.19
2022-09-24T08:46:22.493Z,101228.69
2022-09-24T08:51:46.201Z,101232.94
2022-09-24T08:54:15.063Z,101248.63
2022-09-24T08:56:46.651Z,101231.06
2022-09-24T08:59:30.707Z,101244.63
2022-09-24T09:02:35.811Z,101243.44
2022-09-24T09:05:11.412Z,101238.78
2022-09-24T09:07:48.622Z,101236.44
2022-09-24T09:10:19.629Z,101243.78
2022-09-24T09:12:57.431Z,101230.84
2022-09-24T09:15:38.204Z,101235.31
2022-09-24T09:18:24.274Z,101231.34
2022-09-24T09:21:04.632Z,101233.94
2022-09-24T09:23:51.838Z,101231.78
2022-09-24T09:26:20.479Z,101239.69
2022-09-24T09:28:48.488Z,101242.84
2022-09-24T09:31:37.702Z,101236.56
2022-09-24T09:34:31.887Z,101232.56
2022-09-24T09:37:24.901Z,101232.38
2022-09-24T09:40:31.993Z,101242.16
2022-09-24T09:43:05.355Z,101240.75
2022-09-24T09:45:48.174Z,101236.38
2022-09-24T09:48:16.974Z,101247.97
2022-09-24T09:50:59.936Z,101242.59
2022-09-24T09:53:31.659Z,101242.34
2022-09-24T09:56:03.990Z,101241.81
2022-09-24T09:58:36.446Z,101240.28
2022-09-24T10:01:13.336Z,101240.38
2022-09-24T10:03:50.609Z,101237.03
2022-09-24T10:06:30.031Z,101236.66
2022-09-24T10:09:16.184Z,101241.06
2022-09-24T10:11:43.441Z,101244.31
2022-09-24T10:14:15.156Z,101242.09
2022-09-24T10:16:46.853Z,101236.91
2022-09-24T10:19:25.077Z,101232.34
2022-09-24T10:21:55.182Z,101237.00
2022-09-24T10:24:28.253Z,101237.13
2022-09-24T10:26:55.276Z,101242.69
2022-09-24T10:29:52.789Z,101237.03
2022-09-24T10:32:22.876Z,101235.19
2022-09-24T10:35:00.707Z,101242.34
2022-09-24T10:37:28.766Z,101232.91
2022-09-24T10:40:25.971Z,101238.88
2022-09-24T10:43:04.495Z,101239.31
2022-09-24T10:45:51.554Z,101237.31
2022-09-24T10:48:27.157Z,101228.94
2022-09-24T10:51:13.788Z,101236.38
2022-09-24T10:54:15.914Z,101232.53
2022-09-24T10:56:52.002Z,101231.72
2022-09-24T10:59:46.919Z,101243.53
2022-09-24T11:02:13.999Z,101228.56
2022-09-24T11:05:15.647Z,101240.69
2022-09-24T11:08:02.429Z,101234.38
2022-09-24T11:10:36.142Z,101234.16
2022-09-24T11:13:11.998Z,101237.75
2022-09-24T11:16:09.356Z,101239.00
2022-09-24T11:18:58.240Z,101236.91
2022-09-24T11:21:53.742Z,101236.25
2022-09-24T11:24:48.135Z,101236.91
2022-09-24T11:27:57.382Z,101236.09
2022-09-24T11:30:41.039Z,101236.09
2022-09-24T11:33:07.825Z,101227.38
2022-09-24T11:35:53.268Z,101224.16
2022-09-24T11:38:31.191Z,101226.50
2022-09-24T11:41:21.528Z,101224.50
2022-09-24T11:44:10.344Z,101224.38
2022-09-24T11:46:47.479Z,101221.72
2022-09-24T11:49:48.574Z,101221.53
2022-09-24T11:52:25.972Z,101224.47
2022-09-24T11:54:58.555Z,101225.72
2022-09-24T11:57:30.209Z,101224.53
2022-09-24T12:00:08.999Z,101230.75
2022-09-24T12:02:38.765Z,101214.44
2022-09-24T12:05:14.369Z,101217.91
2022-09-24T12:07:55.910Z,101224.88
2022-09-24T12:10:33.444Z,101221.03
2022-09-24T12:13:06.020Z,101211.25
2022-09-24T12:15:52.451Z,101213.53
2022-09-24T12:19:07.246Z,101221.53
2022-09-24T12:21:40.820Z,101227.09
2022-09-24T12:24:13.795Z,101216.63
2022-09-24T12:26:42.220Z,101223.81
2022-09-24T12:29:50.362Z,101220.53
2022-09-24T12:32:56.293Z,101229.44
2022-09-24T12:35:29.091Z,101226.78
2022-09-24T12:38:00.872Z,101220.28
2022-09-24T12:41:03.151Z,101219.06
2022-09-24T12:43:57.580Z,101213.97
2022-09-24T12:46:43.045Z,101220.78
2022-09-24T12:49:37.540Z,101223.63
2022-09-24T12:52:23.723Z,101224.47
2022-09-24T12:55:00.117Z,101220.00
2022-09-24T12:57:33.281Z,101225.78
2022-09-24T13:00:02.673Z,101221.28
2022-09-24T13:02:43.284Z,101219.63
2022-09-24T13:05:29.548Z,101220.88
2022-09-24T13:08:24.894Z,101226.84
2022-09-24T13:11:05.996Z,101217.81
2022-09-24T13:13:44.387Z,101216.06
2022-09-24T13:16:20.814Z,101217.72
2022-09-24T13:18:57.240Z,101223.47
2022-09-24T13:21:29.659Z,101218.00
2022-09-24T13:23:57.324Z,101217.63
2022-09-24T13:26:30.946Z,101224.63
2022-09-24T13:29:01.135Z,101215.88
2022-09-24T13:31:36.059Z,101213.66
2022-09-24T13:34:28.669Z,101214.06
2022-09-24T13:37:02.894Z,101222.50
2022-09-24T13:39:52.260Z,101213.75
2022-09-24T13:42:37.816Z,101213.13
2022-09-24T13:45:17.401Z,101207.16
2022-09-24T13:47:59.605Z,101206.50
2022-09-24T13:50:32.786Z,101204.47
2022-09-24T13:53:06.811Z,101220.16
2022-09-24T13:55:39.671Z,101207.66
2022-09-24T13:58:26.077Z,101208.47
2022-09-24T14:00:55.286Z,101212.22
2022-09-24T14:03:26.568Z,101213.44
2022-09-24T14:05:53.595Z,101213.88
2022-09-24T14:08:25.601Z,101208.94
2022-09-24T14:11:24.924Z,101231.66
2022-09-24T14:13:52.419Z,101230.19
2022-09-24T14:16:22.014Z,101222.16
2022-09-24T14:18:49.853Z,101216.75
2022-09-24T14:21:21.082Z,101218.34
2022-09-24T14:24:02.065Z,101227.75
2022-09-24T14:26:47.098Z,101222.34
2022-09-24T14:29:22.774Z,101223.19
2022-09-24T14:31:55.282Z,101241.41
2022-09-24T14:34:40.818Z,101224.97
2022-09-24T14:37:12.495Z,101217.38
2022-09-24T14:39:43.768Z,101223.88
2022-09-24T14:42:33.480Z,101222.28
2022-09-24T14:45:04.659Z,101225.75
2022-09-24T14:47:34.048Z,101223.88
2022-09-24T14:50:04.233Z,101215.13
2022-09-24T14:52:32.743Z,101218.63
2022-09-24T14:55:18.663Z,101217.22
2022-09-24T14:57:49.602Z,101220.94
2022-09-24T15:00:27.032Z,101215.44
2022-09-24T15:02:58.375Z,101216.25
2022-09-24T15:05:29.948Z,101214.44
2022-09-24T15:08:19.071Z,101213.59
2022-09-24T15:11:03.848Z,101215.44
2022-09-24T15:13:37.258Z,101215.25
2022-09-24T15:16:32.169Z,101208.09
2022-09-24T15:19:14.430Z,101209.34
2022-09-24T15:21:41.747Z,101213.44
2022-09-24T15:24:10.200Z,101222.50
2022-09-24T15:26:41.169Z,101218.41
2022-09-24T15:29:08.208Z,101212.03
2022-09-24T15:31:35.265Z,101214.06
2022-09-24T15:34:02.567Z,101217.75
2022-09-24T15:36:29.478Z,101209.13
2022-09-24T15:39:08.814Z,101213.84
2022-09-24T15:41:36.349Z,101225.50
2022-09-24T15:44:03.246Z,101227.09
2022-09-24T15:46:33.038Z,101224.59
2022-09-24T15:49:00.115Z,101234.78
2022-09-24T15:51:26.909Z,101235.19
2022-09-24T15:53:53.792Z,101237.84
2022-09-24T15:56:23.552Z,101231.28
2022-09-24T15:58:51.088Z,101239.69
2022-09-24T16:01:19.067Z,101235.13
2022-09-24T16:03:46.204Z,101250.03
2022-09-24T16:06:14.375Z,101248.41
2022-09-24T16:08:42.598Z,101243.88
2022-09-24T16:11:09.917Z,101255.94
2022-09-24T16:13:37.137Z,101251.38
2022-09-24T16:16:08.258Z,101255.00
2022-09-24T16:18:38.759Z,101257.22
2022-09-24T16:21:07.719Z,101258.41
2022-09-24T16:23:34.661Z,101259.16
2022-09-24T16:26:01.981Z,101259.38
2022-09-24T16:28:29.860Z,101271.38
2022-09-24T16:30:56.927Z,101263.63
2022-09-24T16:33:24.113Z,101262.34
2022-09-24T16:35:51.081Z,101266.84
2022-09-24T16:38:22.772Z,101263.97
2022-09-24T16:41:00.146Z,101267.66
2022-09-24T16:43:27.013Z,101266.38
2022-09-24T16:45:53.896Z,101266.19
2022-09-24T16:48:37.558Z,101276.84
2022-09-24T16:54:28.963Z,101286.47
2022-09-24T16:57:03.853Z,101285.66
2022-09-24T16:59:41.251Z,101290.81
2022-09-24T17:02:17.085Z,101288.75
2022-09-24T17:04:59.316Z,101288.19
2022-09-24T17:07:39.719Z,101296.38
2022-09-24T17:10:23.275Z,101305.38
2022-09-24T17:13:12.920Z,101305.94
2022-09-24T17:15:40.017Z,101304.47
2022-09-24T17:18:07.558Z,101324.09
2022-09-24T17:20:44.815Z,101319.44
2022-09-24T17:23:11.656Z,101319.88
2022-09-24T17:25:38.533Z,101316.19
2022-09-24T17:28:05.900Z,101319.88
2022-09-24T17:30:33.179Z,101322.28
2022-09-24T17:33:00.092Z,101321.34
2022-09-24T17:35:27.074Z,101327.81
2022-09-24T17:37:55.755Z,101325.84
2022-09-24T17:40:24.371Z,101322.53
2022-09-24T17:42:51.934Z,101331.53
2022-09-24T17:45:18.938Z,101334.19
2022-09-24T17:47:59.034Z,101338.72
2022-09-24T17:50:26.509Z,101342.53
2022-09-24T17:52:54.759Z,101339.72
2022-09-24T17:55:21.727Z,101347.69
2022-09-24T17:57:48.862Z,101354.47
2022-09-24T18:00:15.989Z,101361.88
2022-09-24T18:02:42.912Z,101365.13
2022-09-24T18:05:11.243Z,101367.31
2022-09-24T18:07:38.905Z,101367.88
2022-09-24T18:10:06.193Z,101371.94
2022-09-24T18:12:33.577Z,101373.94
2022-09-24T18:15:00.497Z,101374.75
2022-09-24T18:17:27.501Z,101384.41
2022-09-24T18:19:54.335Z,101386.22
2022-09-24T18:22:21.388Z,101391.38
2022-09-24T18:24:48.316Z,101391.28
2022-09-24T18:27:16.305Z,101398.44
2022-09-24T18:29:44.605Z,101401.81
2022-09-24T18:32:22.095Z,101407.13
2022-09-24T18:34:48.920Z,101409.22
2022-09-24T18:37:15.766Z,101406.28
2022-09-24T18:39:42.695Z,101408.03
2022-09-24T18:42:09.492Z,101416.53
2022-09-24T18:44:36.921Z,101409.47
2022-09-24T18:47:04.146Z,101416.31
2022-09-24T18:49:30.995Z,101422.84
2022-09-24T18:51:57.887Z,101422.66
2022-09-24T18:54:24.970Z,101417.53
2022-09-24T18:56:51.915Z,101435.94
2022-09-24T18:59:21.573Z,101434.28
2022-09-24T19:01:51.060Z,101441.63
2022-09-24T19:04:18.799Z,101446.94
2022-09-24T19:06:48.467Z,101450.22
2022-09-24T19:09:20.602Z,101446.81
2022-09-24T19:11:49.252Z,101445.69
2022-09-24T19:14:18.667Z,101453.19
2022-09-24T19:16:46.309Z,101459.88
2022-09-24T19:19:13.244Z,101456.94
2022-09-24T19:21:40.959Z,101455.09
2022-09-24T19:24:10.054Z,101454.28
2022-09-24T19:26:37.329Z,101460.41
2022-09-24T19:29:05.424Z,101460.22
2022-09-24T19:31:45.802Z,101470.69
2022-09-24T19:34:14.959Z,101466.19
2022-09-24T19:36:44.367Z,101474.53
2022-09-24T19:39:14.820Z,101478.69
2022-09-24T19:41:42.610Z,101477.66
2022-09-24T19:44:09.719Z,101473.88
2022-09-24T19:46:37.670Z,101482.19
2022-09-24T19:49:04.550Z,101486.53
2022-09-24T19:51:33.417Z,101487.50
2022-09-24T19:54:02.653Z,101492.31
2022-09-24T19:56:30.127Z,101487.50
2022-09-24T19:59:00.385Z,101481.22
2022-09-24T20:01:30.102Z,101488.56
2022-09-24T20:03:58.491Z,101498.53
2022-09-24T20:06:29.323Z,101494.22
2022-09-24T20:08:59.682Z,101498.88
2022-09-24T20:11:27.397Z,101505.34
2022-09-24T20:13:56.239Z,101498.13
2022-09-24T20:16:26.617Z,101504.41
2022-09-24T20:18:58.029Z,101510.06
2022-09-24T20:21:27.887Z,101509.88
2022-09-24T20:23:56.991Z,101511.88
2022-09-24T20:26:43.098Z,101513.53
2022-09-24T20:29:13.340Z,101512.41
2022-09-24T20:31:55.680Z,101513.75
2022-09-24T20:34:34.071Z,101507.59
2022-09-24T20:37:02.603Z,101504.47
2022-09-24T20:39:29.677Z,101500.31
2022-09-24T20:42:06.314Z,101498.50
2022-09-24T20:44:34.018Z,101499.03
2022-09-24T20:47:01.219Z,101499.84
2022-09-24T20:49:28.316Z,101499.38
2022-09-24T20:51:57.799Z,101506.81
2022-09-24T20:54:26.714Z,101515.78
2022-09-24T20:56:53.756Z,101516.28
2022-09-24T20:59:20.719Z,101506.84
2022-09-24T21:01:49.663Z,101518.63
2022-09-24T21:04:17.565Z,101508.53
2022-09-24T21:06:44.463Z,101509.69
2022-09-24T21:09:11.272Z,101503.56
2022-09-24T21:11:38.562Z,101520.13
2022-09-24T21:14:30.130Z,101517.47
2022-09-24T21:16:57.025Z,101518.81
2022-09-24T21:19:25.137Z,101514.50
2022-09-24T21:22:03.239Z,101515.50
2022-09-24T21:24:31.544Z,101514.66
2022-09-24T21:26:59.652Z,101524.13
2022-09-24T21:29:26.803Z,101521.00
2022-09-24T21:31:53.629Z,101513.88
2022-09-24T21:34:21.674Z,101518.19
2022-09-24T21:36:48.746Z,101520.69
2022-09-24T21:39:20.474Z,101514.22
2022-09-24T21:42:02.897Z,101520.69
2022-09-24T21:44:34.337Z,101514.72
2022-09-24T21:47:01.774Z,101526.81
2022-09-24T21:49:29.601Z,101516.72
2022-09-24T21:51:57.709Z,101522.53
2022-09-24T21:54:24.626Z,101520.03
2022-09-24T21:56:54.634Z,101520.53
2022-09-24T21:59:40.417Z,101524.84
2022-09-24T22:02:10.274Z,101525.34
2022-09-24T22:04:42.999Z,101527.31
2022-09-24T22:07:10.223Z,101526.00
2022-09-24T22:09:37.158Z,101528.50
2022-09-24T22:12:07.773Z,101532.97
2022-09-24T22:14:35.070Z,101534.81
2022-09-24T22:17:04.459Z,101524.66
2022-09-24T22:19:31.839Z,101525.34
2022-09-24T22:22:03.281Z,101527.78
2022-09-24T22:24:30.232Z,101525.31
2022-09-24T22:26:57.296Z,101526.16
2022-09-24T22:29:24.236Z,101525.66
2022-09-24T22:31:51.113Z,101519.34
2022-09-24T22:34:36.350Z,101524.34
2022-09-24T22:37:07.144Z,101534.28
2022-09-24T22:39:34.882Z,101537.91
2022-09-24T22:42:09.387Z,101538.41
2022-09-24T22:44:38.978Z,101545.56
2022-09-24T22:47:06.212Z,101534.28
2022-09-24T22:49:34.429Z,101540.56
2022-09-24T22:52:03.661Z,101547.88
2022-09-24T22:54:30.748Z,101556.66
2022-09-24T22:56:57.677Z,101545.22
2022-09-24T22:59:24.624Z,101554.16
2022-09-24T23:01:51.575Z,101557.50
2022-09-24T23:04:18.573Z,101546.19
2022-09-24T23:06:45.469Z,101553.31
2022-09-24T23:09:12.678Z,101554.16
2022-09-24T23:11:44.707Z,101545.03
2022-09-24T23:14:15.643Z,101542.88
2022-09-24T23:16:43.524Z,101544.56
2022-09-24T23:19:18.545Z,101544.22
2022-09-24T23:21:46.123Z,101546.03
2022-09-24T23:24:16.605Z,101547.72
2022-09-24T23:26:49.102Z,101551.19
2022-09-24T23:29:21.219Z,101551.66
2022-09-24T23:31:50.079Z,101550.19
2022-09-24T23:34:20.000Z,101549.69
2022-09-24T23:36:47.390Z,101548.19
2022-09-24T23:39:16.763Z,101547.34
2022-09-24T23:41:46.110Z,101549.00
2022-09-24T23:44:13.362Z,101543.72
2022-09-24T23:46:42.373Z,101542.72
2022-09-24T23:49:15.166Z,101547.88
2022-09-24T23:51:42.469Z,101535.41
2022-09-24T23:54:11.108Z,101546.34
2022-09-24T23:56:39.008Z,101531.94
2022-09-24T23:59:10.290Z,101540.38
